createdAt,value
2019-02-24T00:00:47.029Z,0.02
2019-02-24T00:03:12.779Z,0.00
2019-02-24T00:05:38.547Z,-0.01
2019-02-24T00:08:04.301Z,0.03
2019-02-24T00:10:30.067Z,-0.05
2019-02-24T00:12:55.823Z,-0.08
2019-02-24T00:15:21.590Z,-0.11
2019-02-24T00:17:47.599Z,-0.16
2019-02-24T00:20:13.349Z,-0.19
2019-02-24T00:22:39.116Z,-0.22
2019-02-24T00:25:04.864Z,-0.28
2019-02-24T00:27:30.625Z,-0.33
2019-02-24T00:29:56.370Z,-0.30
2019-02-24T00:32:22.130Z,-0.30
2019-02-24T00:34:47.872Z,-0.28
2019-02-24T00:37:13.637Z,-0.26
2019-02-24T00:39:39.387Z,-0.26
2019-02-24T00:42:05.159Z,-0.26
2019-02-24T00:44:30.912Z,-0.23
2019-02-24T00:46:56.673Z,-0.27
2019-02-24T00:49:22.423Z,-0.33
2019-02-24T00:51:48.187Z,-0.36
2019-02-24T00:54:13.934Z,-0.38
2019-02-24T00:56:39.728Z,-0.43
2019-02-24T00:59:05.473Z,-0.48
2019-02-24T01:01:31.238Z,-0.45
2019-02-24T01:03:57.002Z,-0.43
2019-02-24T01:06:22.762Z,-0.44
2019-02-24T01:08:48.530Z,-0.44
2019-02-24T01:11:14.266Z,-0.47
2019-02-24T01:13:40.041Z,-0.50
2019-02-24T01:16:05.784Z,-0.47
2019-02-24T01:18:31.544Z,-0.44
2019-02-24T01:20:57.297Z,-0.42
2019-02-24T01:23:23.056Z,-0.45
2019-02-24T01:25:48.802Z,-0.58
2019-02-24T01:28:14.566Z,-0.57
2019-02-24T01:30:40.321Z,-0.61
2019-02-24T01:33:06.085Z,-0.64
2019-02-24T01:35:31.822Z,-0.69
2019-02-24T01:37:57.586Z,-0.67
2019-02-24T01:40:23.340Z,-0.63
2019-02-24T01:42:49.099Z,-0.64
2019-02-24T01:45:14.845Z,-0.70
2019-02-24T01:47:40.628Z,-0.72
2019-02-24T01:50:07.375Z,-0.72
2019-02-24T01:52:33.117Z,-0.72
2019-02-24T01:54:58.878Z,-0.69
2019-02-24T01:57:24.626Z,-0.68
2019-02-24T01:59:50.392Z,-0.67
2019-02-24T02:02:16.151Z,-0.72
2019-02-24T02:04:41.909Z,-0.69
2019-02-24T02:07:07.661Z,-0.77
2019-02-24T02:09:33.429Z,-0.81
2019-02-24T02:11:59.178Z,-0.85
2019-02-24T02:14:24.944Z,-0.89
2019-02-24T02:16:50.695Z,-0.93
2019-02-24T02:19:16.460Z,-0.89
2019-02-24T02:21:42.215Z,-0.94
2019-02-24T02:24:07.977Z,-1.00
2019-02-24T02:26:33.722Z,-0.98
2019-02-24T02:28:59.493Z,-1.02
2019-02-24T02:31:25.238Z,-1.07
2019-02-24T02:33:51.033Z,-1.10
2019-02-24T02:36:16.779Z,-1.15
2019-02-24T02:38:42.539Z,-1.00
2019-02-24T02:41:08.292Z,-0.98
2019-02-24T02:43:34.563Z,-0.96
2019-02-24T02:46:00.588Z,-0.95
2019-02-24T02:48:26.505Z,-0.97
2019-02-24T02:50:52.267Z,-0.99
2019-02-24T02:53:18.301Z,-1.04
2019-02-24T02:55:44.040Z,-1.01
2019-02-24T02:58:09.790Z,-1.01
2019-02-24T03:00:35.712Z,-0.99
2019-02-24T03:03:01.464Z,-1.00
2019-02-24T03:05:27.465Z,-0.94
2019-02-24T03:08:06.904Z,-0.92
2019-02-24T03:10:33.178Z,-0.94
2019-02-24T03:12:58.924Z,-1.03
2019-02-24T03:15:24.698Z,-1.06
2019-02-24T03:17:50.449Z,-1.02
2019-02-24T03:20:16.947Z,-1.00
2019-02-24T03:22:42.688Z,-1.01
2019-02-24T03:25:08.470Z,-0.98
2019-02-24T03:27:34.207Z,-0.96
2019-02-24T03:30:00.240Z,-0.97
2019-02-24T03:32:26.370Z,-0.92
2019-02-24T03:34:52.131Z,-0.95
2019-02-24T03:37:17.900Z,-0.99
2019-02-24T03:39:43.648Z,-0.99
2019-02-24T03:42:09.407Z,-1.06
2019-02-24T03:44:36.087Z,-1.16
2019-02-24T03:47:02.880Z,-1.19
2019-02-24T03:49:28.582Z,-1.18
2019-02-24T03:51:54.512Z,-1.10
2019-02-24T03:54:20.260Z,-1.08
2019-02-24T03:56:46.015Z,-1.07
2019-02-24T03:59:15.142Z,-1.12
2019-02-24T04:01:39.443Z,-1.16
2019-02-24T04:04:05.180Z,-1.14
2019-02-24T04:06:30.947Z,-1.04
2019-02-24T04:08:56.718Z,-0.97
2019-02-24T04:11:22.483Z,-0.91
2019-02-24T04:13:48.234Z,-0.97
2019-02-24T04:16:14.000Z,-0.98
2019-02-24T04:18:39.751Z,-0.93
2019-02-24T04:21:05.498Z,-0.86
2019-02-24T04:23:31.273Z,-0.89
2019-02-24T04:25:57.015Z,-0.93
2019-02-24T04:28:22.782Z,-0.92
2019-02-24T04:30:48.526Z,-0.82
2019-02-24T04:33:14.286Z,-0.85
2019-02-24T04:35:40.027Z,-0.96
2019-02-24T04:38:05.785Z,-1.00
2019-02-24T04:40:31.527Z,-1.00
2019-02-24T04:42:57.283Z,-0.97
2019-02-24T04:45:23.029Z,-0.97
2019-02-24T04:47:48.788Z,-1.00
2019-02-24T04:50:14.534Z,-1.07
2019-02-24T04:52:40.299Z,-1.19
2019-02-24T04:55:06.055Z,-1.16
2019-02-24T04:57:31.821Z,-1.16
2019-02-24T04:59:57.571Z,-1.05
2019-02-24T05:02:23.351Z,-1.17
2019-02-24T05:04:49.097Z,-1.16
2019-02-24T05:07:14.864Z,-1.07
2019-02-24T05:09:40.607Z,-0.94
2019-02-24T05:12:06.361Z,-0.86
2019-02-24T05:14:32.110Z,-0.73
2019-02-24T05:16:57.866Z,-0.73
2019-02-24T05:19:23.624Z,-0.75
2019-02-24T05:21:49.376Z,-0.80
2019-02-24T05:24:15.138Z,-0.81
2019-02-24T05:26:40.889Z,-0.87
2019-02-24T05:29:06.655Z,-0.95
2019-02-24T05:31:32.401Z,-0.96
2019-02-24T05:33:58.170Z,-0.96
2019-02-24T05:36:23.936Z,-0.96
2019-02-24T05:38:49.700Z,-0.97
2019-02-24T05:41:15.443Z,-0.98
2019-02-24T05:43:41.202Z,-1.00
2019-02-24T05:46:06.945Z,-0.99
2019-02-24T05:48:33.690Z,-0.99
2019-02-24T05:50:59.545Z,-1.05
2019-02-24T05:53:25.311Z,-1.14
2019-02-24T05:55:51.095Z,-1.16
2019-02-24T05:58:16.833Z,-1.16
2019-02-24T06:00:42.599Z,-1.12
2019-02-24T06:03:08.344Z,-1.12
2019-02-24T06:05:34.115Z,-1.07
2019-02-24T06:07:59.863Z,-1.06
2019-02-24T06:10:25.630Z,-1.06
2019-02-24T06:12:51.377Z,-0.97
2019-02-24T06:15:17.144Z,-0.88
2019-02-24T06:17:42.891Z,-0.89
2019-02-24T06:20:08.647Z,-0.77
2019-02-24T06:22:34.396Z,-0.67
2019-02-24T06:25:00.210Z,-0.64
2019-02-24T06:27:26.018Z,-0.70
2019-02-24T06:29:51.785Z,-0.77
2019-02-24T06:32:17.525Z,-0.86
2019-02-24T06:34:43.283Z,-0.88
2019-02-24T06:37:09.024Z,-0.81
2019-02-24T06:39:34.783Z,-0.90
2019-02-24T06:42:00.527Z,-0.88
2019-02-24T06:44:26.292Z,-0.93
2019-02-24T06:46:52.044Z,-0.90
2019-02-24T06:49:17.823Z,-0.86
2019-02-24T06:51:43.567Z,-0.88
2019-02-24T06:54:09.309Z,-0.92
2019-02-24T06:56:35.064Z,-1.00
2019-02-24T06:59:00.810Z,-1.01
2019-02-24T07:01:26.584Z,-1.00
2019-02-24T07:03:52.328Z,-1.01
2019-02-24T07:06:18.100Z,-0.99
2019-02-24T07:08:43.842Z,-0.93
2019-02-24T07:11:09.606Z,-0.91
2019-02-24T07:13:35.354Z,-0.84
2019-02-24T07:16:01.125Z,-0.87
2019-02-24T07:18:26.870Z,-0.70
2019-02-24T07:20:52.626Z,-0.60
2019-02-24T07:23:18.391Z,-0.56
2019-02-24T07:25:44.153Z,-0.51
2019-02-24T07:28:09.897Z,-0.37
2019-02-24T07:30:35.657Z,-0.20
2019-02-24T07:33:01.402Z,-0.08
2019-02-24T07:35:27.141Z,-0.04
2019-02-24T07:37:52.906Z,0.06
2019-02-24T07:40:18.652Z,0.13
2019-02-24T07:42:44.404Z,0.27
2019-02-24T07:45:10.161Z,0.49
2019-02-24T07:47:35.926Z,0.69
2019-02-24T07:50:01.763Z,0.89
2019-02-24T07:52:27.529Z,1.06
2019-02-24T07:54:53.274Z,1.23
2019-02-24T07:57:19.027Z,1.38
2019-02-24T07:59:44.788Z,1.53
2019-02-24T08:02:10.560Z,1.68
2019-02-24T08:04:36.312Z,1.84
2019-02-24T08:07:02.082Z,1.86
2019-02-24T08:09:27.826Z,1.90
2019-02-24T08:11:53.584Z,2.07
2019-02-24T08:14:19.339Z,2.23
2019-02-24T08:16:45.105Z,2.25
2019-02-24T08:19:10.848Z,2.40
2019-02-24T08:21:36.614Z,2.52
2019-02-24T08:24:02.366Z,2.66
2019-02-24T08:26:28.124Z,2.78
2019-02-24T08:28:53.882Z,2.89
2019-02-24T08:31:19.676Z,2.92
2019-02-24T08:33:45.424Z,2.94
2019-02-24T08:36:11.164Z,2.96
2019-02-24T08:38:36.923Z,3.27
2019-02-24T08:41:02.690Z,3.49
2019-02-24T08:43:28.456Z,3.66
2019-02-24T08:45:54.209Z,3.65
2019-02-24T08:48:19.997Z,3.86
2019-02-24T08:50:45.738Z,3.97
2019-02-24T08:53:11.496Z,4.01
2019-02-24T08:55:37.245Z,4.02
2019-02-24T08:58:02.996Z,4.14
2019-02-24T09:00:28.746Z,4.26
2019-02-24T09:02:54.525Z,4.39
2019-02-24T09:05:20.280Z,4.37
2019-02-24T09:07:46.039Z,4.41
2019-02-24T09:10:11.784Z,4.48
2019-02-24T09:12:37.536Z,4.48
2019-02-24T09:15:09.288Z,4.53
2019-02-24T09:17:35.048Z,4.48
2019-02-24T09:20:00.807Z,4.35
2019-02-24T09:22:26.560Z,4.43
2019-02-24T09:24:52.299Z,4.45
2019-02-24T09:27:18.058Z,4.43
2019-02-24T09:29:43.805Z,4.50
2019-02-24T09:32:09.592Z,4.54
2019-02-24T09:34:35.339Z,4.58
2019-02-24T09:37:01.086Z,4.70
2019-02-24T09:39:26.844Z,5.11
2019-02-24T09:41:52.621Z,5.61
2019-02-24T09:44:18.379Z,6.12
2019-02-24T09:46:44.124Z,6.27
2019-02-24T09:49:09.881Z,6.73
2019-02-24T09:51:35.630Z,7.07
2019-02-24T09:54:01.386Z,7.10
2019-02-24T09:56:27.127Z,7.27
2019-02-24T09:58:52.951Z,7.44
2019-02-24T10:01:18.708Z,7.59
2019-02-24T10:03:44.472Z,7.84
2019-02-24T10:06:10.226Z,8.00
2019-02-24T10:08:35.984Z,8.12
2019-02-24T10:11:01.730Z,8.12
2019-02-24T10:13:27.490Z,8.49
2019-02-24T10:15:53.233Z,8.49
2019-02-24T10:18:18.986Z,8.87
2019-02-24T10:20:44.742Z,8.85
2019-02-24T10:23:10.489Z,8.82
2019-02-24T10:25:36.253Z,9.14
2019-02-24T10:28:01.999Z,9.46
2019-02-24T10:30:27.756Z,9.62
2019-02-24T10:32:53.505Z,9.69
2019-02-24T10:35:19.268Z,9.50
2019-02-24T10:37:45.050Z,9.19
2019-02-24T10:40:12.779Z,8.96
2019-02-24T10:42:38.535Z,8.97
2019-02-24T10:45:10.230Z,8.97
2019-02-24T10:47:35.993Z,9.04
2019-02-24T10:50:03.353Z,9.04
2019-02-24T10:52:30.685Z,9.02
2019-02-24T10:54:56.585Z,9.40
2019-02-24T10:57:22.358Z,9.40
2019-02-24T10:59:48.553Z,9.20
2019-02-24T11:02:14.319Z,9.49
2019-02-24T11:04:40.098Z,9.55
2019-02-24T11:07:05.857Z,9.79
2019-02-24T11:09:31.637Z,10.05
2019-02-24T11:11:57.388Z,10.03
2019-02-24T11:14:23.128Z,10.33
2019-02-24T11:16:48.884Z,10.07
2019-02-24T11:19:14.633Z,10.32
2019-02-24T11:21:40.401Z,10.43
2019-02-24T11:24:06.153Z,10.95
2019-02-24T11:26:31.909Z,10.97
2019-02-24T11:28:57.650Z,10.81
2019-02-24T11:31:23.411Z,10.94
2019-02-24T11:33:49.151Z,10.77
2019-02-24T11:36:14.912Z,10.99
2019-02-24T11:38:40.658Z,10.99
2019-02-24T11:41:06.417Z,11.25
2019-02-24T11:43:32.168Z,11.60
2019-02-24T11:45:57.932Z,11.76
2019-02-24T11:48:23.676Z,11.72
2019-02-24T11:50:49.449Z,11.61
2019-02-24T11:53:15.200Z,11.35
2019-02-24T11:55:41.607Z,11.43
2019-02-24T11:58:07.449Z,11.86
2019-02-24T12:00:33.195Z,12.06
2019-02-24T12:02:59.031Z,12.31
2019-02-24T12:05:24.778Z,12.41
2019-02-24T12:07:50.554Z,12.39
2019-02-24T12:10:16.294Z,12.20
2019-02-24T12:12:42.053Z,12.27
2019-02-24T12:15:10.208Z,12.32
2019-02-24T12:17:35.979Z,12.27
2019-02-24T12:20:01.832Z,12.27
2019-02-24T12:22:27.583Z,12.61
2019-02-24T12:24:53.331Z,12.82
2019-02-24T12:27:19.089Z,12.86
2019-02-24T12:29:44.841Z,12.68
2019-02-24T12:32:10.624Z,12.54
2019-02-24T12:34:36.393Z,12.66
2019-02-24T12:37:02.153Z,12.83
2019-02-24T12:39:27.900Z,12.79
2019-02-24T12:41:53.664Z,12.54
2019-02-24T12:44:19.412Z,12.55
2019-02-24T12:46:45.168Z,12.99
2019-02-24T12:49:10.912Z,13.38
2019-02-24T12:51:36.657Z,13.47
2019-02-24T12:54:02.417Z,13.57
2019-02-24T12:56:28.166Z,13.38
2019-02-24T12:58:53.925Z,13.36
2019-02-24T13:01:19.671Z,13.63
2019-02-24T13:03:45.443Z,13.67
2019-02-24T13:06:11.194Z,13.26
2019-02-24T13:08:36.961Z,13.27
2019-02-24T13:11:02.803Z,13.57
2019-02-24T13:13:28.561Z,13.42
2019-02-24T13:15:54.307Z,13.17
2019-02-24T13:18:20.065Z,13.15
2019-02-24T13:20:45.813Z,13.07
2019-02-24T13:23:11.571Z,12.95
2019-02-24T13:25:37.320Z,13.06
2019-02-24T13:28:03.082Z,13.03
2019-02-24T13:30:28.820Z,13.31
2019-02-24T13:32:54.581Z,13.42
2019-02-24T13:35:20.338Z,13.59
2019-02-24T13:37:46.130Z,13.53
2019-02-24T13:40:15.298Z,13.62
2019-02-24T13:42:41.043Z,13.89
2019-02-24T13:45:10.102Z,13.41
2019-02-24T13:47:35.846Z,13.20
2019-02-24T13:50:01.909Z,13.00
2019-02-24T13:52:27.659Z,12.95
2019-02-24T13:54:53.417Z,12.89
2019-02-24T13:57:19.163Z,12.83
2019-02-24T13:59:44.924Z,12.66
2019-02-24T14:02:10.685Z,12.56
2019-02-24T14:04:36.439Z,12.53
2019-02-24T14:07:02.187Z,12.51
2019-02-24T14:09:27.944Z,12.40
2019-02-24T14:11:53.684Z,12.40
2019-02-24T14:14:19.460Z,12.51
2019-02-24T14:16:45.216Z,12.70
2019-02-24T14:19:10.974Z,12.77
2019-02-24T14:21:36.715Z,12.46
2019-02-24T14:24:02.498Z,12.26
2019-02-24T14:26:28.243Z,12.15
2019-02-24T14:28:53.998Z,12.16
2019-02-24T14:31:19.776Z,12.00
2019-02-24T14:33:45.522Z,12.00
2019-02-24T14:36:11.284Z,11.94
2019-02-24T14:38:37.031Z,11.95
2019-02-24T14:41:02.795Z,12.20
2019-02-24T14:43:28.541Z,12.22
2019-02-24T14:45:54.295Z,12.02
2019-02-24T14:48:20.050Z,12.00
2019-02-24T14:50:45.797Z,11.91
2019-02-24T14:53:11.541Z,11.85
2019-02-24T14:55:37.309Z,11.69
2019-02-24T14:58:03.055Z,11.70
2019-02-24T15:00:28.811Z,11.72
2019-02-24T15:02:54.582Z,11.76
2019-02-24T15:05:20.375Z,11.74
2019-02-24T15:07:46.082Z,11.74
2019-02-24T15:10:19.837Z,11.74
2019-02-24T15:12:45.595Z,11.79
2019-02-24T15:15:16.295Z,11.79
2019-02-24T15:17:42.055Z,11.78
2019-02-24T15:20:10.811Z,11.74
2019-02-24T15:22:36.565Z,11.66
2019-02-24T15:25:04.727Z,11.68
2019-02-24T15:27:30.485Z,11.63
2019-02-24T15:29:56.231Z,11.59
2019-02-24T15:32:21.988Z,11.53
2019-02-24T15:34:47.728Z,11.46
2019-02-24T15:37:13.496Z,11.42
2019-02-24T15:39:39.239Z,11.31
2019-02-24T15:42:04.994Z,11.34
2019-02-24T15:44:30.743Z,11.33
2019-02-24T15:46:56.503Z,11.27
2019-02-24T15:49:22.258Z,11.15
2019-02-24T15:51:48.013Z,11.01
2019-02-24T15:54:13.756Z,10.98
2019-02-24T15:56:39.518Z,10.86
2019-02-24T15:59:05.272Z,10.73
2019-02-24T16:01:31.036Z,10.66
2019-02-24T16:03:56.805Z,10.54
2019-02-24T16:06:22.565Z,10.44
2019-02-24T16:08:48.311Z,10.44
2019-02-24T16:11:14.069Z,10.31
2019-02-24T16:13:39.845Z,10.33
2019-02-24T16:16:05.568Z,10.34
2019-02-24T16:18:31.314Z,10.23
2019-02-24T16:20:57.055Z,10.10
2019-02-24T16:23:22.815Z,10.17
2019-02-24T16:25:48.556Z,10.17
2019-02-24T16:28:14.314Z,10.21
2019-02-24T16:30:40.064Z,10.13
2019-02-24T16:33:10.640Z,10.07
2019-02-24T16:35:33.474Z,10.01
2019-02-24T16:37:59.237Z,9.92
2019-02-24T16:40:26.681Z,9.83
2019-02-24T16:42:52.448Z,9.66
2019-02-24T16:45:18.197Z,9.57
2019-02-24T16:47:44.056Z,9.45
2019-02-24T16:50:13.596Z,9.40
2019-02-24T16:52:39.369Z,9.08
2019-02-24T16:55:08.020Z,9.08
2019-02-24T16:57:33.776Z,8.96
2019-02-24T16:59:59.525Z,8.76
2019-02-24T17:02:25.293Z,8.58
2019-02-24T17:04:51.036Z,8.40
2019-02-24T17:07:16.842Z,8.26
2019-02-24T17:09:42.589Z,8.26
2019-02-24T17:12:08.339Z,8.25
2019-02-24T17:14:34.100Z,8.23
2019-02-24T17:17:01.783Z,8.22
2019-02-24T17:19:27.520Z,8.06
2019-02-24T17:21:53.273Z,8.06
2019-02-24T17:24:19.030Z,7.94
2019-02-24T17:26:44.772Z,7.86
2019-02-24T17:29:10.535Z,7.73
2019-02-24T17:31:36.279Z,7.67
2019-02-24T17:34:02.036Z,7.60
2019-02-24T17:36:27.784Z,7.49
2019-02-24T17:38:53.539Z,7.47
2019-02-24T17:41:19.284Z,7.45
2019-02-24T17:43:45.062Z,7.36
2019-02-24T17:46:10.808Z,7.26
2019-02-24T17:48:36.720Z,7.17
2019-02-24T17:51:02.474Z,7.07
2019-02-24T17:53:28.235Z,6.97
2019-02-24T17:55:53.985Z,6.86
2019-02-24T17:58:19.731Z,6.92
2019-02-24T18:00:50.018Z,6.84
2019-02-24T18:03:15.791Z,6.75
2019-02-24T18:05:41.552Z,6.53
2019-02-24T18:08:07.295Z,6.37
2019-02-24T18:10:33.053Z,6.22
2019-02-24T18:12:58.795Z,6.11
2019-02-24T18:15:24.553Z,6.04
2019-02-24T18:17:50.296Z,5.94
2019-02-24T18:20:17.571Z,5.82
2019-02-24T18:22:43.326Z,5.72
2019-02-24T18:25:10.286Z,5.68
2019-02-24T18:27:36.033Z,5.70
2019-02-24T18:30:02.894Z,5.63
2019-02-24T18:32:28.645Z,5.53
2019-02-24T18:34:54.398Z,5.43
2019-02-24T18:37:20.146Z,5.34
2019-02-24T18:39:47.003Z,5.27
2019-02-24T18:42:12.710Z,5.18
2019-02-24T18:44:38.504Z,5.10
2019-02-24T18:47:04.320Z,5.04
2019-02-24T18:49:30.061Z,4.92
2019-02-24T18:51:55.823Z,4.85
2019-02-24T18:54:21.582Z,4.80
2019-02-24T18:56:47.362Z,4.80
2019-02-24T18:59:13.152Z,4.72
2019-02-24T19:01:38.998Z,4.64
2019-02-24T19:04:04.765Z,4.56
2019-02-24T19:06:38.756Z,4.57
2019-02-24T19:08:58.192Z,4.49
2019-02-24T19:11:23.971Z,4.44
2019-02-24T19:13:49.719Z,4.42
2019-02-24T19:16:15.477Z,4.37
2019-02-24T19:18:41.231Z,4.35
2019-02-24T19:21:06.990Z,4.26
2019-02-24T19:23:32.742Z,4.21
2019-02-24T19:25:58.528Z,4.15
2019-02-24T19:28:24.279Z,4.12
2019-02-24T19:30:50.042Z,4.03
2019-02-24T19:33:15.797Z,3.99
2019-02-24T19:35:41.545Z,3.96
2019-02-24T19:38:07.311Z,3.92
2019-02-24T19:40:33.053Z,3.87
2019-02-24T19:42:58.822Z,3.85
2019-02-24T19:45:24.671Z,3.80
2019-02-24T19:47:50.443Z,3.76
2019-02-24T19:50:16.479Z,3.75
2019-02-24T19:52:42.255Z,3.75
2019-02-24T19:55:09.599Z,3.75
2019-02-24T19:57:35.390Z,3.76
2019-02-24T20:00:01.233Z,3.75
2019-02-24T20:02:26.995Z,3.72
2019-02-24T20:04:52.953Z,3.64
2019-02-24T20:07:18.722Z,3.61
2019-02-24T20:09:44.474Z,3.59
2019-02-24T20:12:10.240Z,3.49
2019-02-24T20:14:35.995Z,3.41
2019-02-24T20:17:01.751Z,3.37
2019-02-24T20:19:27.504Z,3.28
2019-02-24T20:21:53.274Z,3.20
2019-02-24T20:24:19.030Z,3.14
2019-02-24T20:26:44.810Z,3.10
2019-02-24T20:29:10.557Z,3.09
2019-02-24T20:31:36.310Z,3.09
2019-02-24T20:34:02.067Z,3.16
2019-02-24T20:36:27.812Z,3.19
2019-02-24T20:38:53.568Z,3.15
2019-02-24T20:41:19.325Z,3.02
2019-02-24T20:43:45.103Z,2.82
2019-02-24T20:46:10.860Z,2.90
2019-02-24T20:48:36.631Z,2.90
2019-02-24T20:51:02.375Z,2.91
2019-02-24T20:53:28.225Z,2.97
2019-02-24T20:55:53.940Z,2.95
2019-02-24T20:58:19.687Z,2.84
2019-02-24T21:00:48.242Z,2.89
2019-02-24T21:03:14.068Z,2.84
2019-02-24T21:05:39.869Z,2.69
2019-02-24T21:08:05.630Z,2.74
2019-02-24T21:10:31.411Z,2.63
2019-02-24T21:12:57.204Z,2.41
2019-02-24T21:15:23.035Z,2.41
2019-02-24T21:17:48.794Z,2.36
2019-02-24T21:20:28.292Z,2.27
2019-02-24T21:22:54.056Z,2.21
2019-02-24T21:25:19.827Z,2.14
2019-02-24T21:27:45.683Z,2.03
2019-02-24T21:30:15.618Z,1.98
2019-02-24T21:32:41.467Z,1.98
2019-02-24T21:35:08.491Z,1.89
2019-02-24T21:37:34.239Z,1.79
2019-02-24T21:40:00.000Z,1.76
2019-02-24T21:42:25.746Z,1.71
2019-02-24T21:44:51.512Z,1.63
2019-02-24T21:47:17.268Z,1.60
2019-02-24T21:49:43.071Z,1.55
2019-02-24T21:52:08.820Z,1.55
2019-02-24T21:54:34.587Z,1.56
2019-02-24T21:57:00.340Z,1.58
2019-02-24T21:59:26.141Z,1.55
2019-02-24T22:01:51.879Z,1.54
2019-02-24T22:04:17.653Z,1.55
2019-02-24T22:06:43.397Z,1.45
2019-02-24T22:09:09.680Z,1.38
2019-02-24T22:11:35.409Z,1.32
2019-02-24T22:14:01.212Z,1.25
2019-02-24T22:16:26.961Z,1.21
2019-02-24T22:19:00.713Z,1.32
2019-02-24T22:21:26.799Z,1.30
2019-02-24T22:27:00.311Z,1.18
2019-02-24T22:29:26.204Z,1.05
2019-02-24T22:31:52.014Z,0.97
2019-02-24T22:34:17.966Z,1.00
2019-02-24T22:36:43.730Z,1.07
2019-02-24T22:39:09.477Z,1.05
2019-02-24T22:41:35.460Z,0.98
2019-02-24T22:44:01.373Z,0.90
2019-02-24T22:46:27.356Z,0.93
2019-02-24T22:48:53.104Z,0.92
2019-02-24T22:51:19.192Z,0.91
2019-02-24T22:53:45.046Z,0.90
2019-02-24T22:56:10.818Z,0.92
2019-02-24T22:58:36.567Z,0.88
2019-02-24T23:04:16.482Z,0.86
2019-02-24T23:06:42.240Z,0.71
2019-02-24T23:09:49.665Z,0.72
2019-02-24T23:12:15.528Z,0.64
2019-02-24T23:15:22.991Z,0.55
2019-02-24T23:17:48.731Z,0.45
2019-02-24T23:20:14.485Z,0.52
2019-02-24T23:22:40.253Z,0.48
2019-02-24T23:25:06.131Z,0.37
2019-02-24T23:27:31.869Z,0.37
2019-02-24T23:29:57.627Z,0.35
2019-02-24T23:32:23.380Z,0.38
2019-02-24T23:34:49.133Z,0.35
2019-02-24T23:37:14.916Z,0.33
2019-02-24T23:39:40.665Z,0.30
2019-02-24T23:42:06.433Z,0.32
2019-02-24T23:47:19.483Z,0.22
2019-02-24T23:49:45.241Z,0.22
2019-02-24T23:52:11.001Z,0.19
2019-02-24T23:54:36.749Z,0.20
2019-02-24T23:57:02.523Z,0.10
2019-02-24T23:59:28.270Z,0.06
